sensor_id;sensor_type;location;lat;lon;timestamp;P1;durP1;ratioP1;P2;durP2;ratioP2
13051;SDS011;6592;47.484;9.726;2023-04-03T00:02:11;0.17;;;0.10;;
13051;SDS011;6592;47.484;9.726;2023-04-03T00:04:41;0.50;;;0.20;;
13051;SDS011;6592;47.484;9.726;2023-04-03T00:07:10;0.40;;;0.10;;
13051;SDS011;6592;47.484;9.726;2023-04-03T00:09:41;0.68;;;0.20;;
13051;SDS011;6592;47.484;9.726;2023-04-03T00:12:09;0.68;;;0.20;;
13051;SDS011;6592;47.484;9.726;2023-04-03T00:14:38;0.50;;;0.20;;
13051;SDS011;6592;47.484;9.726;2023-04-03T00:17:07;0.60;;;0.30;;
13051;SDS011;6592;47.484;9.726;2023-04-03T00:19:36;0.82;;;0.38;;
13051;SDS011;6592;47.484;9.726;2023-04-03T00:22:06;0.55;;;0.30;;
13051;SDS011;6592;47.484;9.726;2023-04-03T00:24:35;0.88;;;0.38;;
13051;SDS011;6592;47.484;9.726;2023-04-03T00:27:03;1.15;;;0.50;;
13051;SDS011;6592;47.484;9.726;2023-04-03T00:29:32;1.10;;;0.40;;
13051;SDS011;6592;47.484;9.726;2023-04-03T00:32:01;1.23;;;0.32;;
13051;SDS011;6592;47.484;9.726;2023-04-03T00:34:29;0.70;;;0.40;;
13051;SDS011;6592;47.484;9.726;2023-04-03T00:36:58;0.98;;;0.40;;
13051;SDS011;6592;47.484;9.726;2023-04-03T00:39:29;0.98;;;0.50;;
13051;SDS011;6592;47.484;9.726;2023-04-03T00:41:58;0.87;;;0.50;;
13051;SDS011;6592;47.484;9.726;2023-04-03T00:47:29;1.02;;;0.40;;
13051;SDS011;6592;47.484;9.726;2023-04-03T00:49:59;1.42;;;0.60;;
13051;SDS011;6592;47.484;9.726;2023-04-03T00:52:29;0.75;;;0.43;;
13051;SDS011;6592;47.484;9.726;2023-04-03T00:55:02;1.25;;;0.50;;
13051;SDS011;6592;47.484;9.726;2023-04-03T00:57:34;1.80;;;0.85;;
13051;SDS011;6592;47.484;9.726;2023-04-03T01:00:05;2.28;;;0.90;;
13051;SDS011;6592;47.484;9.726;2023-04-03T01:02:44;1.40;;;0.70;;
13051;SDS011;6592;47.484;9.726;2023-04-03T01:05:13;1.02;;;0.52;;
13051;SDS011;6592;47.484;9.726;2023-04-03T01:07:45;1.75;;;0.77;;
13051;SDS011;6592;47.484;9.726;2023-04-03T01:10:19;1.67;;;0.80;;
13051;SDS011;6592;47.484;9.726;2023-04-03T01:12:50;2.10;;;1.00;;
13051;SDS011;6592;47.484;9.726;2023-04-03T01:15:21;1.50;;;0.70;;
13051;SDS011;6592;47.484;9.726;2023-04-03T01:17:53;1.75;;;0.85;;
13051;SDS011;6592;47.484;9.726;2023-04-03T01:23:39;2.78;;;1.10;;
13051;SDS011;6592;47.484;9.726;2023-04-03T01:28:49;2.17;;;1.08;;
13051;SDS011;6592;47.484;9.726;2023-04-03T01:31:20;2.92;;;1.27;;
13051;SDS011;6592;47.484;9.726;2023-04-03T01:33:54;2.20;;;1.20;;
13051;SDS011;6592;47.484;9.726;2023-04-03T01:36:25;2.22;;;1.23;;
13051;SDS011;6592;47.484;9.726;2023-04-03T01:38:56;2.97;;;1.30;;
13051;SDS011;6592;47.484;9.726;2023-04-03T01:41:26;3.42;;;1.60;;
13051;SDS011;6592;47.484;9.726;2023-04-03T01:43:56;3.95;;;1.70;;
13051;SDS011;6592;47.484;9.726;2023-04-03T01:46:26;2.97;;;1.63;;
13051;SDS011;6592;47.484;9.726;2023-04-03T01:48:57;3.50;;;1.70;;
13051;SDS011;6592;47.484;9.726;2023-04-03T01:51:26;3.17;;;1.60;;
13051;SDS011;6592;47.484;9.726;2023-04-03T01:53:55;4.50;;;1.70;;
13051;SDS011;6592;47.484;9.726;2023-04-03T01:56:24;3.30;;;1.63;;
13051;SDS011;6592;47.484;9.726;2023-04-03T01:58:53;3.63;;;1.70;;
13051;SDS011;6592;47.484;9.726;2023-04-03T02:01:23;4.47;;;1.70;;
13051;SDS011;6592;47.484;9.726;2023-04-03T02:03:52;3.88;;;1.80;;
13051;SDS011;6592;47.484;9.726;2023-04-03T02:06:23;3.60;;;1.80;;
13051;SDS011;6592;47.484;9.726;2023-04-03T02:08:52;4.35;;;2.15;;
13051;SDS011;6592;47.484;9.726;2023-04-03T02:11:22;4.15;;;1.90;;
13051;SDS011;6592;47.484;9.726;2023-04-03T02:13:53;4.28;;;2.00;;
13051;SDS011;6592;47.484;9.726;2023-04-03T02:16:22;4.40;;;2.20;;
13051;SDS011;6592;47.484;9.726;2023-04-03T02:18:51;5.95;;;2.00;;
13051;SDS011;6592;47.484;9.726;2023-04-03T02:21:22;4.35;;;2.00;;
13051;SDS011;6592;47.484;9.726;2023-04-03T02:23:52;3.43;;;1.83;;
13051;SDS011;6592;47.484;9.726;2023-04-03T02:26:22;4.15;;;2.15;;
13051;SDS011;6592;47.484;9.726;2023-04-03T02:28:51;3.80;;;1.98;;
13051;SDS011;6592;47.484;9.726;2023-04-03T02:31:20;4.25;;;2.17;;
13051;SDS011;6592;47.484;9.726;2023-04-03T02:33:50;4.63;;;2.20;;
13051;SDS011;6592;47.484;9.726;2023-04-03T02:36:22;4.63;;;2.20;;
13051;SDS011;6592;47.484;9.726;2023-04-03T02:38:58;3.72;;;2.20;;
13051;SDS011;6592;47.484;9.726;2023-04-03T02:41:28;4.97;;;2.40;;
13051;SDS011;6592;47.484;9.726;2023-04-03T02:44:02;4.63;;;2.60;;
13051;SDS011;6592;47.484;9.726;2023-04-03T02:46:32;4.53;;;2.28;;
13051;SDS011;6592;47.484;9.726;2023-04-03T02:49:04;4.68;;;2.25;;
13051;SDS011;6592;47.484;9.726;2023-04-03T02:51:37;5.20;;;2.75;;
13051;SDS011;6592;47.484;9.726;2023-04-03T02:54:06;5.25;;;2.88;;
13051;SDS011;6592;47.484;9.726;2023-04-03T02:56:35;5.57;;;3.00;;
13051;SDS011;6592;47.484;9.726;2023-04-03T02:59:04;6.53;;;3.00;;
13051;SDS011;6592;47.484;9.726;2023-04-03T03:01:33;6.25;;;3.08;;
13051;SDS011;6592;47.484;9.726;2023-04-03T03:04:02;7.10;;;3.22;;
13051;SDS011;6592;47.484;9.726;2023-04-03T03:06:34;5.40;;;3.20;;
13051;SDS011;6592;47.484;9.726;2023-04-03T03:09:06;4.80;;;2.88;;
13051;SDS011;6592;47.484;9.726;2023-04-03T03:11:36;6.90;;;3.10;;
13051;SDS011;6592;47.484;9.726;2023-04-03T03:14:05;5.80;;;3.22;;
13051;SDS011;6592;47.484;9.726;2023-04-03T03:16:34;5.95;;;3.00;;
13051;SDS011;6592;47.484;9.726;2023-04-03T03:19:03;6.53;;;3.00;;
13051;SDS011;6592;47.484;9.726;2023-04-03T03:21:33;5.90;;;3.05;;
13051;SDS011;6592;47.484;9.726;2023-04-03T03:24:12;6.18;;;3.05;;
13051;SDS011;6592;47.484;9.726;2023-04-03T03:26:42;5.57;;;2.75;;
13051;SDS011;6592;47.484;9.726;2023-04-03T03:29:11;6.22;;;2.92;;
13051;SDS011;6592;47.484;9.726;2023-04-03T03:31:40;6.53;;;3.13;;
13051;SDS011;6592;47.484;9.726;2023-04-03T03:34:09;6.07;;;3.03;;
13051;SDS011;6592;47.484;9.726;2023-04-03T03:36:39;6.78;;;3.00;;
13051;SDS011;6592;47.484;9.726;2023-04-03T03:39:10;6.68;;;3.10;;
13051;SDS011;6592;47.484;9.726;2023-04-03T03:41:41;5.32;;;2.70;;
13051;SDS011;6592;47.484;9.726;2023-04-03T03:44:10;6.22;;;3.10;;
13051;SDS011;6592;47.484;9.726;2023-04-03T03:46:41;7.82;;;3.13;;
13051;SDS011;6592;47.484;9.726;2023-04-03T03:49:11;6.10;;;3.17;;
13051;SDS011;6592;47.484;9.726;2023-04-03T03:51:40;6.63;;;3.20;;
13051;SDS011;6592;47.484;9.726;2023-04-03T03:54:11;7.20;;;3.50;;
13051;SDS011;6592;47.484;9.726;2023-04-03T03:56:44;6.70;;;3.22;;
13051;SDS011;6592;47.484;9.726;2023-04-03T03:59:14;7.55;;;3.30;;
13051;SDS011;6592;47.484;9.726;2023-04-03T04:01:43;7.65;;;3.35;;
13051;SDS011;6592;47.484;9.726;2023-04-03T04:04:12;6.60;;;3.22;;
13051;SDS011;6592;47.484;9.726;2023-04-03T04:06:42;6.43;;;3.08;;
13051;SDS011;6592;47.484;9.726;2023-04-03T04:09:12;7.65;;;3.47;;
13051;SDS011;6592;47.484;9.726;2023-04-03T04:11:45;6.35;;;3.22;;
13051;SDS011;6592;47.484;9.726;2023-04-03T04:14:15;6.35;;;3.30;;
13051;SDS011;6592;47.484;9.726;2023-04-03T04:16:44;6.78;;;3.10;;
13051;SDS011;6592;47.484;9.726;2023-04-03T04:19:14;7.05;;;3.50;;
13051;SDS011;6592;47.484;9.726;2023-04-03T04:21:44;8.95;;;3.60;;
13051;SDS011;6592;47.484;9.726;2023-04-03T04:24:16;6.88;;;3.33;;
13051;SDS011;6592;47.484;9.726;2023-04-03T04:26:48;7.75;;;3.60;;
13051;SDS011;6592;47.484;9.726;2023-04-03T04:29:19;5.55;;;2.88;;
13051;SDS011;6592;47.484;9.726;2023-04-03T04:31:49;8.57;;;3.50;;
13051;SDS011;6592;47.484;9.726;2023-04-03T04:34:18;8.25;;;3.50;;
13051;SDS011;6592;47.484;9.726;2023-04-03T04:36:47;7.22;;;3.50;;
13051;SDS011;6592;47.484;9.726;2023-04-03T04:39:19;6.78;;;3.50;;
13051;SDS011;6592;47.484;9.726;2023-04-03T04:41:50;7.03;;;3.72;;
13051;SDS011;6592;47.484;9.726;2023-04-03T04:44:21;7.55;;;3.70;;
13051;SDS011;6592;47.484;9.726;2023-04-03T04:46:52;8.80;;;3.80;;
13051;SDS011;6592;47.484;9.726;2023-04-03T04:49:23;6.87;;;3.70;;
13051;SDS011;6592;47.484;9.726;2023-04-03T04:51:53;10.05;;;3.78;;
13051;SDS011;6592;47.484;9.726;2023-04-03T04:56:55;8.90;;;3.57;;
13051;SDS011;6592;47.484;9.726;2023-04-03T04:59:25;8.10;;;3.65;;
13051;SDS011;6592;47.484;9.726;2023-04-03T05:01:54;7.40;;;3.63;;
13051;SDS011;6592;47.484;9.726;2023-04-03T05:04:24;9.57;;;3.70;;
13051;SDS011;6592;47.484;9.726;2023-04-03T05:06:52;7.20;;;3.40;;
13051;SDS011;6592;47.484;9.726;2023-04-03T05:09:27;8.25;;;3.50;;
13051;SDS011;6592;47.484;9.726;2023-04-03T05:11:57;7.60;;;3.80;;
13051;SDS011;6592;47.484;9.726;2023-04-03T05:14:26;7.85;;;3.63;;
13051;SDS011;6592;47.484;9.726;2023-04-03T05:16:55;8.18;;;3.83;;
13051;SDS011;6592;47.484;9.726;2023-04-03T05:19:26;7.63;;;3.92;;
13051;SDS011;6592;47.484;9.726;2023-04-03T05:21:55;8.88;;;3.95;;
13051;SDS011;6592;47.484;9.726;2023-04-03T05:24:30;7.20;;;3.40;;
13051;SDS011;6592;47.484;9.726;2023-04-03T05:27:01;8.65;;;3.85;;
13051;SDS011;6592;47.484;9.726;2023-04-03T05:29:31;10.30;;;4.35;;
13051;SDS011;6592;47.484;9.726;2023-04-03T05:32:02;6.85;;;3.40;;
13051;SDS011;6592;47.484;9.726;2023-04-03T05:34:32;9.30;;;4.13;;
13051;SDS011;6592;47.484;9.726;2023-04-03T05:37:03;9.65;;;4.32;;
13051;SDS011;6592;47.484;9.726;2023-04-03T05:39:36;7.80;;;3.85;;
13051;SDS011;6592;47.484;9.726;2023-04-03T05:42:08;7.45;;;3.58;;
13051;SDS011;6592;47.484;9.726;2023-04-03T05:44:38;7.45;;;3.60;;
13051;SDS011;6592;47.484;9.726;2023-04-03T05:47:07;8.95;;;3.97;;
13051;SDS011;6592;47.484;9.726;2023-04-03T05:49:36;7.57;;;3.78;;
13051;SDS011;6592;47.484;9.726;2023-04-03T05:52:09;7.65;;;3.70;;
13051;SDS011;6592;47.484;9.726;2023-04-03T05:54:51;6.15;;;3.33;;
13051;SDS011;6592;47.484;9.726;2023-04-03T05:57:20;8.57;;;3.92;;
13051;SDS011;6592;47.484;9.726;2023-04-03T05:59:50;6.95;;;3.58;;
13051;SDS011;6592;47.484;9.726;2023-04-03T06:02:20;8.70;;;4.03;;
13051;SDS011;6592;47.484;9.726;2023-04-03T06:04:52;9.07;;;4.50;;
13051;SDS011;6592;47.484;9.726;2023-04-03T06:07:23;8.23;;;3.63;;
13051;SDS011;6592;47.484;9.726;2023-04-03T06:09:56;9.73;;;4.22;;
13051;SDS011;6592;47.484;9.726;2023-04-03T06:12:25;8.05;;;4.05;;
13051;SDS011;6592;47.484;9.726;2023-04-03T06:14:55;9.45;;;4.40;;
13051;SDS011;6592;47.484;9.726;2023-04-03T06:17:25;7.80;;;3.72;;
13051;SDS011;6592;47.484;9.726;2023-04-03T06:19:53;8.38;;;4.50;;
13051;SDS011;6592;47.484;9.726;2023-04-03T06:22:22;9.82;;;4.38;;
13051;SDS011;6592;47.484;9.726;2023-04-03T06:24:58;8.85;;;4.10;;
13051;SDS011;6592;47.484;9.726;2023-04-03T06:27:27;7.75;;;4.28;;
13051;SDS011;6592;47.484;9.726;2023-04-03T06:29:58;10.55;;;4.50;;
13051;SDS011;6592;47.484;9.726;2023-04-03T06:32:27;9.73;;;4.25;;
13051;SDS011;6592;47.484;9.726;2023-04-03T06:34:56;7.85;;;4.20;;
13051;SDS011;6592;47.484;9.726;2023-04-03T06:37:28;10.23;;;4.25;;
13051;SDS011;6592;47.484;9.726;2023-04-03T06:39:58;9.48;;;4.50;;
13051;SDS011;6592;47.484;9.726;2023-04-03T06:42:28;7.90;;;3.90;;
13051;SDS011;6592;47.484;9.726;2023-04-03T06:44:57;8.57;;;4.32;;
13051;SDS011;6592;47.484;9.726;2023-04-03T06:47:28;8.70;;;4.50;;
13051;SDS011;6592;47.484;9.726;2023-04-03T06:49:59;9.52;;;4.18;;
13051;SDS011;6592;47.484;9.726;2023-04-03T06:52:29;9.50;;;3.80;;
13051;SDS011;6592;47.484;9.726;2023-04-03T06:55:00;8.70;;;4.30;;
13051;SDS011;6592;47.484;9.726;2023-04-03T06:57:29;9.35;;;4.13;;
13051;SDS011;6592;47.484;9.726;2023-04-03T07:00:12;7.80;;;3.70;;
13051;SDS011;6592;47.484;9.726;2023-04-03T07:02:42;9.50;;;3.92;;
13051;SDS011;6592;47.484;9.726;2023-04-03T07:05:12;7.70;;;3.83;;
13051;SDS011;6592;47.484;9.726;2023-04-03T07:07:41;9.23;;;3.67;;
13051;SDS011;6592;47.484;9.726;2023-04-03T07:10:11;7.50;;;3.58;;
13051;SDS011;6592;47.484;9.726;2023-04-03T07:12:40;9.20;;;3.85;;
13051;SDS011;6592;47.484;9.726;2023-04-03T07:15:09;6.53;;;3.33;;
13051;SDS011;6592;47.484;9.726;2023-04-03T07:17:39;6.97;;;3.50;;
13051;SDS011;6592;47.484;9.726;2023-04-03T07:20:08;6.18;;;3.33;;
13051;SDS011;6592;47.484;9.726;2023-04-03T07:22:37;8.27;;;3.47;;
13051;SDS011;6592;47.484;9.726;2023-04-03T07:25:07;6.40;;;3.33;;
13051;SDS011;6592;47.484;9.726;2023-04-03T07:27:40;6.70;;;3.30;;
13051;SDS011;6592;47.484;9.726;2023-04-03T07:30:12;8.13;;;3.58;;
13051;SDS011;6592;47.484;9.726;2023-04-03T07:32:42;8.68;;;3.10;;
13051;SDS011;6592;47.484;9.726;2023-04-03T07:35:12;6.78;;;2.95;;
13051;SDS011;6592;47.484;9.726;2023-04-03T07:40:12;6.53;;;3.20;;
13051;SDS011;6592;47.484;9.726;2023-04-03T07:42:43;7.10;;;3.42;;
13051;SDS011;6592;47.484;9.726;2023-04-03T07:45:11;6.65;;;3.15;;
13051;SDS011;6592;47.484;9.726;2023-04-03T07:47:40;6.80;;;3.47;;
13051;SDS011;6592;47.484;9.726;2023-04-03T07:50:09;6.95;;;3.15;;
13051;SDS011;6592;47.484;9.726;2023-04-03T07:52:38;5.38;;;2.83;;
13051;SDS011;6592;47.484;9.726;2023-04-03T07:55:08;7.43;;;2.95;;
13051;SDS011;6592;47.484;9.726;2023-04-03T07:57:37;8.32;;;3.17;;
13051;SDS011;6592;47.484;9.726;2023-04-03T08:00:09;5.82;;;2.83;;
13051;SDS011;6592;47.484;9.726;2023-04-03T08:05:09;5.78;;;2.78;;
13051;SDS011;6592;47.484;9.726;2023-04-03T08:07:38;6.05;;;2.90;;
13051;SDS011;6592;47.484;9.726;2023-04-03T08:10:07;5.55;;;2.53;;
13051;SDS011;6592;47.484;9.726;2023-04-03T08:12:37;5.63;;;2.70;;
13051;SDS011;6592;47.484;9.726;2023-04-03T08:15:08;6.50;;;2.65;;
13051;SDS011;6592;47.484;9.726;2023-04-03T08:17:39;5.68;;;2.88;;
13051;SDS011;6592;47.484;9.726;2023-04-03T08:20:09;5.55;;;2.85;;
13051;SDS011;6592;47.484;9.726;2023-04-03T08:22:39;4.63;;;2.60;;
13051;SDS011;6592;47.484;9.726;2023-04-03T08:25:10;6.00;;;2.75;;
13051;SDS011;6592;47.484;9.726;2023-04-03T08:27:38;5.40;;;2.63;;
13051;SDS011;6592;47.484;9.726;2023-04-03T08:30:09;5.45;;;2.40;;
13051;SDS011;6592;47.484;9.726;2023-04-03T08:32:38;5.28;;;2.17;;
13051;SDS011;6592;47.484;9.726;2023-04-03T08:35:08;3.95;;;2.00;;
13051;SDS011;6592;47.484;9.726;2023-04-03T08:37:38;5.07;;;2.45;;
13051;SDS011;6592;47.484;9.726;2023-04-03T08:40:10;4.95;;;2.40;;
13051;SDS011;6592;47.484;9.726;2023-04-03T08:42:45;5.28;;;2.40;;
13051;SDS011;6592;47.484;9.726;2023-04-03T08:45:37;5.47;;;2.28;;
13051;SDS011;6592;47.484;9.726;2023-04-03T08:48:12;4.30;;;2.28;;
13051;SDS011;6592;47.484;9.726;2023-04-03T08:50:45;5.80;;;2.50;;
13051;SDS011;6592;47.484;9.726;2023-04-03T08:53:19;4.95;;;2.17;;
13051;SDS011;6592;47.484;9.726;2023-04-03T08:55:51;4.00;;;2.13;;
13051;SDS011;6592;47.484;9.726;2023-04-03T08:58:21;4.63;;;2.28;;
13051;SDS011;6592;47.484;9.726;2023-04-03T09:00:55;5.43;;;2.35;;
13051;SDS011;6592;47.484;9.726;2023-04-03T09:03:28;5.15;;;2.40;;
13051;SDS011;6592;47.484;9.726;2023-04-03T09:08:29;4.43;;;2.30;;
13051;SDS011;6592;47.484;9.726;2023-04-03T09:11:06;5.57;;;2.28;;
13051;SDS011;6592;47.484;9.726;2023-04-03T09:13:44;4.82;;;1.90;;
13051;SDS011;6592;47.484;9.726;2023-04-03T09:16:36;3.75;;;2.00;;
13051;SDS011;6592;47.484;9.726;2023-04-03T09:19:18;3.83;;;1.88;;
13051;SDS011;6592;47.484;9.726;2023-04-03T09:21:56;4.18;;;1.75;;
13051;SDS011;6592;47.484;9.726;2023-04-03T09:24:26;4.23;;;2.00;;
13051;SDS011;6592;47.484;9.726;2023-04-03T09:26:56;3.00;;;1.70;;
13051;SDS011;6592;47.484;9.726;2023-04-03T09:31:57;3.72;;;1.63;;
13051;SDS011;6592;47.484;9.726;2023-04-03T09:34:30;3.95;;;1.90;;
13051;SDS011;6592;47.484;9.726;2023-04-03T09:37:04;4.50;;;2.35;;
13051;SDS011;6592;47.484;9.726;2023-04-03T09:39:48;4.03;;;1.85;;
13051;SDS011;6592;47.484;9.726;2023-04-03T09:42:18;3.80;;;2.08;;
13051;SDS011;6592;47.484;9.726;2023-04-03T09:44:53;4.60;;;2.03;;
13051;SDS011;6592;47.484;9.726;2023-04-03T09:47:25;4.13;;;2.17;;
13051;SDS011;6592;47.484;9.726;2023-04-03T09:50:17;3.50;;;2.03;;
13051;SDS011;6592;47.484;9.726;2023-04-03T09:52:49;4.95;;;2.10;;
13051;SDS011;6592;47.484;9.726;2023-04-03T09:55:20;3.85;;;2.20;;
13051;SDS011;6592;47.484;9.726;2023-04-03T09:57:53;3.67;;;2.08;;
13051;SDS011;6592;47.484;9.726;2023-04-03T10:00:23;5.15;;;2.28;;
13051;SDS011;6592;47.484;9.726;2023-04-03T10:02:56;4.10;;;2.30;;
13051;SDS011;6592;47.484;9.726;2023-04-03T10:05:32;4.63;;;2.33;;
13051;SDS011;6592;47.484;9.726;2023-04-03T10:08:08;3.78;;;2.05;;
13051;SDS011;6592;47.484;9.726;2023-04-03T10:10:46;5.32;;;2.38;;
13051;SDS011;6592;47.484;9.726;2023-04-03T10:13:16;5.03;;;2.35;;
13051;SDS011;6592;47.484;9.726;2023-04-03T10:18:25;4.43;;;2.30;;
13051;SDS011;6592;47.484;9.726;2023-04-03T10:20:59;16.42;;;4.55;;
13051;SDS011;6592;47.484;9.726;2023-04-03T10:23:51;16.70;;;5.25;;
13051;SDS011;6592;47.484;9.726;2023-04-03T10:26:31;19.92;;;6.40;;
13051;SDS011;6592;47.484;9.726;2023-04-03T10:29:08;7.80;;;3.00;;
13051;SDS011;6592;47.484;9.726;2023-04-03T10:31:50;8.50;;;3.05;;
13051;SDS011;6592;47.484;9.726;2023-04-03T10:34:33;7.63;;;3.15;;
13051;SDS011;6592;47.484;9.726;2023-04-03T10:37:20;7.10;;;2.53;;
13051;SDS011;6592;47.484;9.726;2023-04-03T10:40:05;4.53;;;2.58;;
13051;SDS011;6592;47.484;9.726;2023-04-03T10:42:44;3.90;;;2.17;;
13051;SDS011;6592;47.484;9.726;2023-04-03T10:45:19;4.70;;;2.30;;
13051;SDS011;6592;47.484;9.726;2023-04-03T10:47:56;5.07;;;2.55;;
13051;SDS011;6592;47.484;9.726;2023-04-03T10:50:43;4.93;;;2.50;;
13051;SDS011;6592;47.484;9.726;2023-04-03T10:53:20;3.75;;;2.20;;
13051;SDS011;6592;47.484;9.726;2023-04-03T10:56:01;5.20;;;2.42;;
13051;SDS011;6592;47.484;9.726;2023-04-03T10:58:36;5.65;;;2.65;;
13051;SDS011;6592;47.484;9.726;2023-04-03T11:01:11;3.95;;;2.15;;
13051;SDS011;6592;47.484;9.726;2023-04-03T11:03:50;5.20;;;2.40;;
13051;SDS011;6592;47.484;9.726;2023-04-03T11:06:35;4.32;;;2.30;;
13051;SDS011;6592;47.484;9.726;2023-04-03T11:09:11;4.70;;;2.45;;
13051;SDS011;6592;47.484;9.726;2023-04-03T11:11:48;3.85;;;2.10;;
13051;SDS011;6592;47.484;9.726;2023-04-03T11:14:22;4.13;;;1.92;;
13051;SDS011;6592;47.484;9.726;2023-04-03T11:19:52;6.07;;;2.65;;
13051;SDS011;6592;47.484;9.726;2023-04-03T11:22:32;4.13;;;2.30;;
13051;SDS011;6592;47.484;9.726;2023-04-03T11:25:04;4.28;;;2.22;;
13051;SDS011;6592;47.484;9.726;2023-04-03T11:27:47;4.93;;;2.28;;
13051;SDS011;6592;47.484;9.726;2023-04-03T11:30:19;4.35;;;1.98;;
13051;SDS011;6592;47.484;9.726;2023-04-03T11:32:57;3.95;;;1.95;;
13051;SDS011;6592;47.484;9.726;2023-04-03T11:35:42;4.03;;;2.10;;
13051;SDS011;6592;47.484;9.726;2023-04-03T11:38:17;3.63;;;1.70;;
13051;SDS011;6592;47.484;9.726;2023-04-03T11:40:50;3.42;;;1.80;;
13051;SDS011;6592;47.484;9.726;2023-04-03T11:43:23;3.30;;;1.60;;
13051;SDS011;6592;47.484;9.726;2023-04-03T11:45:54;4.30;;;1.60;;
13051;SDS011;6592;47.484;9.726;2023-04-03T11:48:43;4.20;;;1.60;;
13051;SDS011;6592;47.484;9.726;2023-04-03T12:03:30;3.13;;;1.60;;
13051;SDS011;6592;47.484;9.726;2023-04-03T12:12:58;2.58;;;1.45;;
13051;SDS011;6592;47.484;9.726;2023-04-03T12:18:40;3.15;;;1.60;;
13051;SDS011;6592;47.484;9.726;2023-04-03T12:21:14;2.92;;;1.50;;
13051;SDS011;6592;47.484;9.726;2023-04-03T12:26:50;2.97;;;1.63;;
13051;SDS011;6592;47.484;9.726;2023-04-03T12:29:45;3.50;;;1.65;;
13051;SDS011;6592;47.484;9.726;2023-04-03T12:32:22;2.92;;;1.40;;
13051;SDS011;6592;47.484;9.726;2023-04-03T12:35:08;4.13;;;1.55;;
13051;SDS011;6592;47.484;9.726;2023-04-03T12:37:51;3.05;;;1.30;;
13051;SDS011;6592;47.484;9.726;2023-04-03T12:40:42;2.70;;;1.48;;
13051;SDS011;6592;47.484;9.726;2023-04-03T12:43:26;3.45;;;1.70;;
13051;SDS011;6592;47.484;9.726;2023-04-03T12:46:11;2.53;;;1.50;;
13051;SDS011;6592;47.484;9.726;2023-04-03T12:48:49;5.05;;;2.42;;
13051;SDS011;6592;47.484;9.726;2023-04-03T12:51:21;3.65;;;1.80;;
13051;SDS011;6592;47.484;9.726;2023-04-03T12:54:02;3.88;;;2.03;;
13051;SDS011;6592;47.484;9.726;2023-04-03T12:56:45;3.17;;;1.88;;
13051;SDS011;6592;47.484;9.726;2023-04-03T12:59:15;2.97;;;1.60;;
13051;SDS011;6592;47.484;9.726;2023-04-03T13:01:56;3.35;;;1.50;;
13051;SDS011;6592;47.484;9.726;2023-04-03T13:04:26;3.75;;;1.52;;
13051;SDS011;6592;47.484;9.726;2023-04-03T13:06:56;4.25;;;1.60;;
13051;SDS011;6592;47.484;9.726;2023-04-03T13:09:26;3.25;;;1.50;;
13051;SDS011;6592;47.484;9.726;2023-04-03T13:11:57;3.08;;;1.52;;
13051;SDS011;6592;47.484;9.726;2023-04-03T13:14:28;4.15;;;1.60;;
13051;SDS011;6592;47.484;9.726;2023-04-03T13:17:00;3.53;;;1.35;;
13051;SDS011;6592;47.484;9.726;2023-04-03T13:19:34;3.72;;;1.48;;
13051;SDS011;6592;47.484;9.726;2023-04-03T13:22:04;4.80;;;1.80;;
13051;SDS011;6592;47.484;9.726;2023-04-03T13:24:37;3.92;;;1.70;;
13051;SDS011;6592;47.484;9.726;2023-04-03T13:27:07;4.10;;;1.52;;
13051;SDS011;6592;47.484;9.726;2023-04-03T13:29:40;8.38;;;1.98;;
13051;SDS011;6592;47.484;9.726;2023-04-03T13:32:16;6.50;;;1.95;;
13051;SDS011;6592;47.484;9.726;2023-04-03T13:34:48;7.43;;;2.10;;
13051;SDS011;6592;47.484;9.726;2023-04-03T13:37:21;7.70;;;2.38;;
13051;SDS011;6592;47.484;9.726;2023-04-03T13:39:59;5.93;;;1.90;;
13051;SDS011;6592;47.484;9.726;2023-04-03T13:42:32;5.93;;;2.20;;
13051;SDS011;6592;47.484;9.726;2023-04-03T13:48:08;3.08;;;1.80;;
13051;SDS011;6592;47.484;9.726;2023-04-03T13:50:50;3.13;;;1.90;;
13051;SDS011;6592;47.484;9.726;2023-04-03T13:53:27;4.57;;;2.33;;
13051;SDS011;6592;47.484;9.726;2023-04-03T13:56:13;3.03;;;1.90;;
13051;SDS011;6592;47.484;9.726;2023-04-03T13:58:55;5.60;;;1.90;;
13051;SDS011;6592;47.484;9.726;2023-04-03T14:01:32;3.22;;;1.80;;
13051;SDS011;6592;47.484;9.726;2023-04-03T14:04:12;3.28;;;1.67;;
13051;SDS011;6592;47.484;9.726;2023-04-03T14:06:44;3.72;;;1.92;;
13051;SDS011;6592;47.484;9.726;2023-04-03T14:09:15;4.13;;;2.10;;
13051;SDS011;6592;47.484;9.726;2023-04-03T14:11:48;3.83;;;1.90;;
13051;SDS011;6592;47.484;9.726;2023-04-03T14:14:21;3.72;;;1.90;;
13051;SDS011;6592;47.484;9.726;2023-04-03T14:17:02;3.50;;;2.17;;
13051;SDS011;6592;47.484;9.726;2023-04-03T14:19:52;4.85;;;2.10;;
13051;SDS011;6592;47.484;9.726;2023-04-03T14:22:22;5.35;;;2.30;;
13051;SDS011;6592;47.484;9.726;2023-04-03T14:24:52;4.80;;;2.23;;
13051;SDS011;6592;47.484;9.726;2023-04-03T14:27:22;4.18;;;2.05;;
13051;SDS011;6592;47.484;9.726;2023-04-03T14:29:56;5.07;;;2.13;;
13051;SDS011;6592;47.484;9.726;2023-04-03T14:32:25;4.45;;;2.45;;
13051;SDS011;6592;47.484;9.726;2023-04-03T14:34:58;3.75;;;2.17;;
13051;SDS011;6592;47.484;9.726;2023-04-03T14:37:28;4.10;;;2.15;;
13051;SDS011;6592;47.484;9.726;2023-04-03T14:39:58;4.87;;;2.30;;
13051;SDS011;6592;47.484;9.726;2023-04-03T14:42:31;4.70;;;2.78;;
13051;SDS011;6592;47.484;9.726;2023-04-03T14:45:02;5.28;;;2.20;;
13051;SDS011;6592;47.484;9.726;2023-04-03T14:47:33;4.50;;;2.22;;
13051;SDS011;6592;47.484;9.726;2023-04-03T14:50:11;5.55;;;2.45;;
13051;SDS011;6592;47.484;9.726;2023-04-03T14:52:43;4.53;;;2.28;;
13051;SDS011;6592;47.484;9.726;2023-04-03T14:55:14;5.30;;;2.65;;
13051;SDS011;6592;47.484;9.726;2023-04-03T14:57:43;5.00;;;2.28;;
13051;SDS011;6592;47.484;9.726;2023-04-03T15:00:16;3.72;;;2.08;;
13051;SDS011;6592;47.484;9.726;2023-04-03T15:02:47;4.63;;;2.33;;
13051;SDS011;6592;47.484;9.726;2023-04-03T15:05:22;3.75;;;1.92;;
13051;SDS011;6592;47.484;9.726;2023-04-03T15:07:52;4.40;;;1.88;;
13051;SDS011;6592;47.484;9.726;2023-04-03T15:10:26;3.90;;;2.30;;
13051;SDS011;6592;47.484;9.726;2023-04-03T15:12:56;3.65;;;2.08;;
13051;SDS011;6592;47.484;9.726;2023-04-03T15:15:28;5.00;;;2.33;;
13051;SDS011;6592;47.484;9.726;2023-04-03T15:17:57;4.50;;;2.13;;
13051;SDS011;6592;47.484;9.726;2023-04-03T15:20:30;3.45;;;2.10;;
13051;SDS011;6592;47.484;9.726;2023-04-03T15:23:02;3.80;;;2.22;;
13051;SDS011;6592;47.484;9.726;2023-04-03T15:25:31;4.38;;;2.25;;
13051;SDS011;6592;47.484;9.726;2023-04-03T15:28:01;4.47;;;1.98;;
13051;SDS011;6592;47.484;9.726;2023-04-03T15:30:40;3.30;;;1.95;;
13051;SDS011;6592;47.484;9.726;2023-04-03T15:33:11;6.57;;;2.60;;
13051;SDS011;6592;47.484;9.726;2023-04-03T15:35:43;4.28;;;2.22;;
13051;SDS011;6592;47.484;9.726;2023-04-03T15:38:12;5.72;;;2.70;;
13051;SDS011;6592;47.484;9.726;2023-04-03T15:40:41;5.22;;;2.20;;
13051;SDS011;6592;47.484;9.726;2023-04-03T15:43:12;3.90;;;2.00;;
13051;SDS011;6592;47.484;9.726;2023-04-03T15:45:43;5.80;;;2.65;;
13051;SDS011;6592;47.484;9.726;2023-04-03T15:48:15;5.25;;;2.42;;
13051;SDS011;6592;47.484;9.726;2023-04-03T15:50:46;4.68;;;2.45;;
13051;SDS011;6592;47.484;9.726;2023-04-03T15:53:15;3.42;;;2.20;;
13051;SDS011;6592;47.484;9.726;2023-04-03T15:55:46;5.03;;;2.88;;
13051;SDS011;6592;47.484;9.726;2023-04-03T15:58:15;7.10;;;2.15;;
13051;SDS011;6592;47.484;9.726;2023-04-03T16:00:45;4.05;;;2.30;;
13051;SDS011;6592;47.484;9.726;2023-04-03T16:03:15;3.80;;;1.90;;
13051;SDS011;6592;47.484;9.726;2023-04-03T16:05:47;5.32;;;2.60;;
13051;SDS011;6592;47.484;9.726;2023-04-03T16:08:17;3.38;;;1.83;;
13051;SDS011;6592;47.484;9.726;2023-04-03T16:10:46;5.15;;;2.10;;
13051;SDS011;6592;47.484;9.726;2023-04-03T16:13:15;4.10;;;2.05;;
13051;SDS011;6592;47.484;9.726;2023-04-03T16:15:51;4.15;;;2.20;;
13051;SDS011;6592;47.484;9.726;2023-04-03T16:18:23;11.73;;;5.25;;
13051;SDS011;6592;47.484;9.726;2023-04-03T16:20:53;6.22;;;2.60;;
13051;SDS011;6592;47.484;9.726;2023-04-03T16:23:23;7.70;;;3.10;;
13051;SDS011;6592;47.484;9.726;2023-04-03T16:25:52;4.30;;;2.25;;
13051;SDS011;6592;47.484;9.726;2023-04-03T16:28:20;4.78;;;2.20;;